Grimes, Iowa
Current Conditions -  °F | °C
As of 4:55 AM on Sunday 23 Nov 2014 (Local Time) from KIKV Reporting Station
Overcast Overcast  
Wind Chill: 54°   Ceiling: 1100
Heat Index: 54°   Visibility: 8mi
Dew Point: 52°   Wind: 9mph
Humidity: 94%   Direction: 190°S
Pressure: 29.56"   Gusts: 17mph
Location:  41.69°N, 93.79°W
Report Text: KIKV 231055Z AUTO 19008G15KT 8SM OVC011 12/11 A2956 RMK AO2
Loading
Personal Weather Stations






























Interactive Weather Map New forecast layout! Learn more

10-Day Weather Forecast

Advertisements
Track Severe Weather on mobile